createdAt,value
2022-10-05T00:00:48.851Z,89914.47
2022-10-05T00:03:15.675Z,89918.81
2022-10-05T00:05:45.345Z,89923.28
2022-10-05T00:08:17.774Z,89918.00
2022-10-05T00:10:46.071Z,89920.41
2022-10-05T00:13:21.606Z,89908.09
2022-10-05T00:15:50.042Z,89924.25
2022-10-05T00:18:19.355Z,89917.91
2022-10-05T00:20:47.770Z,89910.50
2022-10-05T00:23:19.863Z,89925.72
2022-10-05T00:25:46.913Z,89918.25
2022-10-05T00:28:29.554Z,89923.84
2022-10-05T00:30:58.087Z,89920.81
2022-10-05T00:33:25.847Z,89931.34
2022-10-05T00:35:52.836Z,89924.03
2022-10-05T00:38:19.593Z,89933.97
2022-10-05T00:40:59.115Z,89934.88
2022-10-05T00:43:40.862Z,89931.94
2022-10-05T00:46:30.744Z,89933.06
2022-10-05T00:49:42.488Z,89939.06
2022-10-05T00:52:22.609Z,89945.38
2022-10-05T00:55:12.501Z,89945.13
2022-10-05T00:58:08.506Z,89943.38
2022-10-05T01:00:46.990Z,89944.22
2022-10-05T01:03:43.055Z,89946.34
2022-10-05T01:06:39.518Z,89944.50
2022-10-05T01:09:09.185Z,89950.34
2022-10-05T01:11:43.838Z,89951.81
2022-10-05T01:14:43.855Z,89953.06
2022-10-05T01:17:24.380Z,89943.69
2022-10-05T01:20:06.484Z,89941.84
2022-10-05T01:22:33.337Z,89943.47
2022-10-05T01:25:51.283Z,89945.50
2022-10-05T01:28:28.264Z,89950.84
2022-10-05T01:31:09.696Z,89931.22
2022-10-05T01:34:11.574Z,89935.59
2022-10-05T01:36:52.577Z,89925.88
2022-10-05T01:39:46.974Z,89934.41
2022-10-05T01:42:22.085Z,89935.59
2022-10-05T01:44:53.589Z,89935.59
2022-10-05T01:47:44.066Z,89940.56
2022-10-05T01:50:23.705Z,89932.78
2022-10-05T01:52:53.458Z,89933.84
2022-10-05T01:55:26.088Z,89945.22
2022-10-05T01:58:23.529Z,89950.19
2022-10-05T02:01:03.426Z,89946.53
2022-10-05T02:03:49.705Z,89954.97
2022-10-05T02:06:41.944Z,89956.84
2022-10-05T02:09:17.565Z,89946.19
2022-10-05T02:11:50.286Z,89945.34
2022-10-05T02:14:23.870Z,89950.94
2022-10-05T02:16:53.922Z,89952.41
2022-10-05T02:19:35.560Z,89953.69
2022-10-05T02:22:08.678Z,89938.34
2022-10-05T02:24:40.750Z,89950.97
2022-10-05T02:27:10.947Z,89944.34
2022-10-05T02:29:42.931Z,89947.66
2022-10-05T02:32:27.408Z,89938.28
2022-10-05T02:35:01.720Z,89955.09
2022-10-05T02:37:40.716Z,89953.81
2022-10-05T02:40:39.804Z,89946.56
2022-10-05T02:43:32.717Z,89956.28
2022-10-05T02:46:02.565Z,89944.13
2022-10-05T02:48:56.808Z,89949.09
2022-10-05T02:51:28.613Z,89963.97
2022-10-05T02:53:58.132Z,89954.22
2022-10-05T02:56:49.545Z,89952.47
2022-10-05T02:59:34.438Z,89954.56
2022-10-05T03:02:07.287Z,89964.47
2022-10-05T03:04:46.840Z,89966.97
2022-10-05T03:07:15.847Z,89966.63
2022-10-05T03:09:51.032Z,89975.59
2022-10-05T03:12:49.303Z,89975.34
2022-10-05T03:15:18.802Z,89978.28
2022-10-05T03:18:03.821Z,89977.81
2022-10-05T03:20:55.178Z,89979.56
2022-10-05T03:23:53.244Z,89996.84
2022-10-05T03:26:48.882Z,89992.28
2022-10-05T03:29:23.508Z,90008.34
2022-10-05T03:32:32.528Z,90002.41
2022-10-05T03:35:27.928Z,90009.34
2022-10-05T03:38:20.863Z,90018.56
2022-10-05T03:40:53.363Z,90019.66
2022-10-05T03:43:25.884Z,90026.19
2022-10-05T03:46:19.635Z,90018.94
2022-10-05T03:49:04.598Z,90014.97
2022-10-05T03:51:32.562Z,90021.50
2022-10-05T03:54:35.298Z,90028.56
2022-10-05T03:57:07.143Z,90037.22
2022-10-05T04:00:12.500Z,90033.44
2022-10-05T04:02:50.303Z,90038.94
2022-10-05T04:05:25.098Z,90046.66
2022-10-05T04:08:10.423Z,90043.47
2022-10-05T04:10:46.318Z,90046.31
2022-10-05T04:13:25.819Z,90048.72
2022-10-05T04:16:14.585Z,90052.66
2022-10-05T04:18:44.301Z,90059.75
2022-10-05T04:21:23.770Z,90065.25
2022-10-05T04:24:01.848Z,90068.19
2022-10-05T04:26:45.848Z,90066.72
2022-10-05T04:29:45.109Z,90062.13
2022-10-05T04:32:37.257Z,90072.78
2022-10-05T04:35:36.969Z,90079.31
2022-10-05T04:38:26.560Z,90074.72
2022-10-05T04:41:11.701Z,90075.13
2022-10-05T04:44:01.402Z,90081.94
2022-10-05T04:46:28.293Z,90084.78
2022-10-05T04:49:07.113Z,90085.78
2022-10-05T04:51:52.614Z,90085.13
2022-10-05T04:54:40.051Z,90090.56
2022-10-05T04:57:34.305Z,90090.56
2022-10-05T05:00:26.292Z,90092.59
2022-10-05T05:02:53.033Z,90086.78
2022-10-05T05:06:15.782Z,90094.16
2022-10-05T05:09:11.731Z,90094.63
2022-10-05T05:12:21.772Z,90090.25
2022-10-05T05:14:57.440Z,90091.28
2022-10-05T05:17:36.289Z,90091.00
2022-10-05T05:20:23.971Z,90093.72
2022-10-05T05:22:59.147Z,90101.94
2022-10-05T05:25:43.313Z,90101.47
2022-10-05T05:28:30.605Z,90099.88
2022-10-05T05:31:19.786Z,90114.97
2022-10-05T05:34:28.281Z,90121.47
2022-10-05T05:37:05.204Z,90121.44
2022-10-05T05:39:49.909Z,90124.75
2022-10-05T05:42:37.524Z,90121.84
2022-10-05T05:45:23.797Z,90130.88
2022-10-05T05:47:57.238Z,90129.66
2022-10-05T05:50:55.612Z,90130.88
2022-10-05T05:53:44.646Z,90140.03
2022-10-05T05:56:12.816Z,90148.09
2022-10-05T05:58:42.188Z,90148.75
2022-10-05T06:01:44.183Z,90143.69
2022-10-05T06:04:17.536Z,90151.41
2022-10-05T06:06:50.258Z,90154.50
2022-10-05T06:09:30.965Z,90151.97
2022-10-05T06:12:19.242Z,90161.97
2022-10-05T06:15:12.474Z,90153.69
2022-10-05T06:17:52.997Z,90154.66
2022-10-05T06:20:30.483Z,90158.91
2022-10-05T06:23:03.460Z,90157.66
2022-10-05T06:25:45.085Z,90161.00
2022-10-05T06:28:14.227Z,90165.72
2022-10-05T06:30:48.953Z,90167.66
2022-10-05T06:33:47.899Z,90163.59
2022-10-05T06:36:48.830Z,90167.81
2022-10-05T06:39:15.973Z,90159.78
2022-10-05T06:41:58.989Z,90156.91
2022-10-05T06:44:49.259Z,90157.88
2022-10-05T06:47:46.535Z,90163.31
2022-10-05T06:50:13.274Z,90163.06
2022-10-05T06:52:49.251Z,90163.53
2022-10-05T06:55:21.740Z,90157.97
2022-10-05T06:58:19.417Z,90168.00
2022-10-05T07:01:03.210Z,90166.69
2022-10-05T07:03:38.671Z,90174.72
2022-10-05T07:06:14.329Z,90178.66
2022-10-05T07:08:47.025Z,90165.47
2022-10-05T07:11:40.396Z,90179.50
2022-10-05T07:14:07.090Z,90181.13
2022-10-05T07:16:42.869Z,90189.09
2022-10-05T07:19:27.848Z,90176.38
2022-10-05T07:22:30.500Z,90183.38
2022-10-05T07:25:19.187Z,90188.00
2022-10-05T07:28:00.644Z,90184.38
2022-10-05T07:30:28.531Z,90174.97
2022-10-05T07:33:44.531Z,90182.28
2022-10-05T07:36:19.990Z,90186.16
2022-10-05T07:39:01.629Z,90191.09
2022-10-05T07:41:41.388Z,90197.03
2022-10-05T07:44:26.751Z,90194.16
2022-10-05T07:47:07.160Z,90194.06
2022-10-05T07:49:51.490Z,90193.53
2022-10-05T07:52:46.978Z,90184.72
2022-10-05T07:55:19.572Z,90190.53
2022-10-05T07:57:56.341Z,90190.50
2022-10-05T08:00:26.610Z,90185.81
2022-10-05T08:03:03.933Z,90181.00
2022-10-05T08:05:37.340Z,90180.31
2022-10-05T08:08:14.274Z,90188.34
2022-10-05T08:10:54.873Z,90187.19
2022-10-05T08:13:45.439Z,90184.81
2022-10-05T08:16:13.054Z,90181.56
2022-10-05T08:18:42.715Z,90190.53
2022-10-05T08:21:10.114Z,90182.94
2022-10-05T08:23:56.829Z,90186.19
2022-10-05T08:26:45.501Z,90181.28
2022-10-05T08:29:40.877Z,90189.81
2022-10-05T08:32:24.996Z,90186.25
2022-10-05T08:34:58.519Z,90186.25
2022-10-05T08:37:29.814Z,90176.69
2022-10-05T08:40:33.872Z,90183.09
2022-10-05T08:43:06.483Z,90184.84
2022-10-05T08:45:51.740Z,90173.56
2022-10-05T08:48:52.280Z,90182.13
2022-10-05T08:51:33.466Z,90187.50
2022-10-05T08:54:03.148Z,90179.47
2022-10-05T08:56:33.502Z,90167.25
2022-10-05T08:59:26.349Z,90176.28
2022-10-05T09:02:15.080Z,90156.94
2022-10-05T09:04:47.934Z,90164.69
2022-10-05T09:07:28.821Z,90167.88
2022-10-05T09:10:37.762Z,90160.53
2022-10-05T09:13:17.534Z,90164.63
2022-10-05T09:16:04.701Z,90161.00
2022-10-05T09:18:50.157Z,90162.78
2022-10-05T09:21:39.431Z,90160.13
2022-10-05T09:24:15.018Z,90166.69
2022-10-05T09:26:59.243Z,90163.50
2022-10-05T09:30:00.141Z,90151.25
2022-10-05T09:32:52.777Z,90157.34
2022-10-05T09:35:31.475Z,90148.91
2022-10-05T09:38:07.241Z,90157.19
2022-10-05T09:41:07.318Z,90149.41
2022-10-05T09:43:55.349Z,90153.06
2022-10-05T09:46:48.358Z,90150.72
2022-10-05T09:49:49.164Z,90151.00
2022-10-05T09:52:25.150Z,90152.50
2022-10-05T09:55:13.071Z,90142.78
2022-10-05T09:57:53.145Z,90146.78
2022-10-05T10:00:38.465Z,90131.97
2022-10-05T10:03:25.790Z,90138.56
2022-10-05T10:06:25.157Z,90130.53
2022-10-05T10:09:00.906Z,90132.81
2022-10-05T10:11:44.529Z,90129.75
2022-10-05T10:14:23.968Z,90124.78
2022-10-05T10:16:58.506Z,90122.31
2022-10-05T10:19:27.944Z,90122.13
2022-10-05T10:22:06.437Z,90115.84
2022-10-05T10:24:58.460Z,90109.00
2022-10-05T10:28:08.524Z,90106.84
2022-10-05T10:31:13.134Z,90101.00
2022-10-05T10:33:58.189Z,90098.50
2022-10-05T10:37:13.133Z,90103.50
2022-10-05T10:40:04.005Z,90096.31
2022-10-05T10:42:58.272Z,90092.81
2022-10-05T10:45:47.884Z,90093.53
2022-10-05T10:48:30.081Z,90086.75
2022-10-05T10:51:08.771Z,90091.91
2022-10-05T10:54:00.263Z,90092.88
2022-10-05T10:57:02.933Z,90093.41
2022-10-05T10:59:47.745Z,90093.47
2022-10-05T11:02:32.988Z,90089.28
2022-10-05T11:05:00.181Z,90087.47
2022-10-05T11:07:35.941Z,90094.56
2022-10-05T11:10:23.002Z,90086.06
2022-10-05T11:13:35.521Z,90081.06
2022-10-05T11:16:21.169Z,90085.31
2022-10-05T11:19:13.725Z,90077.13
2022-10-05T11:22:07.123Z,90077.28
2022-10-05T11:24:43.990Z,90074.06
2022-10-05T11:27:48.240Z,90070.81
2022-10-05T11:30:30.243Z,90066.16
2022-10-05T11:32:56.949Z,90069.38
2022-10-05T11:35:49.757Z,90072.19
2022-10-05T11:38:46.787Z,90066.50
2022-10-05T11:41:34.370Z,90057.06
2022-10-05T11:44:27.294Z,90058.31
2022-10-05T11:47:17.991Z,90066.88
2022-10-05T11:50:14.312Z,90057.59
2022-10-05T11:52:48.245Z,90068.84
2022-10-05T11:55:17.928Z,90063.00
2022-10-05T11:57:56.068Z,90066.41
2022-10-05T12:00:31.626Z,90063.72
2022-10-05T12:03:22.468Z,90062.25
2022-10-05T12:06:04.406Z,90057.56
2022-10-05T12:08:54.110Z,90067.03
2022-10-05T12:11:29.812Z,90061.53
2022-10-05T12:14:33.245Z,90059.47
2022-10-05T12:17:15.591Z,90058.59
2022-10-05T12:19:48.241Z,90055.78
2022-10-05T12:22:47.001Z,90069.69
2022-10-05T12:25:25.510Z,90069.69
2022-10-05T12:27:56.806Z,90064.00
2022-10-05T12:30:52.404Z,90059.22
2022-10-05T12:33:27.660Z,90056.56
2022-10-05T12:36:01.547Z,90063.53
2022-10-05T12:38:53.052Z,90071.06
2022-10-05T12:41:25.538Z,90053.03
2022-10-05T12:44:15.621Z,90053.16
2022-10-05T12:46:59.574Z,90054.84
2022-10-05T12:49:56.213Z,90051.16
2022-10-05T12:52:32.996Z,90059.38
2022-10-05T12:55:02.640Z,90063.81
2022-10-05T12:57:41.332Z,90049.00
2022-10-05T13:00:17.848Z,90057.91
2022-10-05T13:03:02.057Z,90058.94
2022-10-05T13:05:52.770Z,90057.97
2022-10-05T13:08:39.775Z,90052.13
2022-10-05T13:11:17.659Z,90054.75
2022-10-05T13:14:18.521Z,90054.31
2022-10-05T13:17:00.178Z,90048.69
2022-10-05T13:19:41.514Z,90053.09
2022-10-05T13:22:56.138Z,90047.63
2022-10-05T13:25:31.360Z,90044.44
2022-10-05T13:28:21.551Z,90055.94
2022-10-05T13:31:21.953Z,90058.13
2022-10-05T13:34:07.189Z,90058.22
2022-10-05T13:36:52.019Z,90052.13
2022-10-05T13:39:39.872Z,90056.09
2022-10-05T13:42:17.989Z,90056.59
2022-10-05T13:44:55.708Z,90051.19
2022-10-05T13:47:42.199Z,90054.88
2022-10-05T13:50:22.653Z,90052.44
2022-10-05T13:53:22.266Z,90051.72
2022-10-05T13:56:07.656Z,90059.06
2022-10-05T13:58:51.601Z,90051.50
2022-10-05T14:01:53.111Z,90049.06
2022-10-05T14:04:44.535Z,90046.59
2022-10-05T14:07:30.537Z,90053.53
2022-10-05T14:09:58.960Z,90051.34
2022-10-05T14:12:27.353Z,90050.84
2022-10-05T14:14:56.904Z,90050.34
2022-10-05T14:17:42.173Z,90050.56
2022-10-05T14:20:21.447Z,90055.22
2022-10-05T14:22:58.077Z,90052.59
2022-10-05T14:25:25.368Z,90050.84
2022-10-05T14:28:11.887Z,90064.81
2022-10-05T14:30:38.905Z,90059.94
2022-10-05T14:33:05.908Z,90066.91
2022-10-05T14:35:52.363Z,90076.72
2022-10-05T14:38:57.655Z,90071.63
2022-10-05T14:41:27.834Z,90073.84
2022-10-05T14:44:12.904Z,90080.00
2022-10-05T14:46:53.156Z,90067.78
2022-10-05T14:49:36.196Z,90083.44
2022-10-05T15:32:14.250Z,90058.34
2022-10-05T15:35:23.574Z,90073.19
2022-10-05T15:38:04.864Z,90068.06
2022-10-05T15:40:51.865Z,90073.44
2022-10-05T15:43:23.020Z,90077.81
2022-10-05T15:45:54.030Z,90077.28
2022-10-05T15:48:43.804Z,90075.06
2022-10-05T15:51:22.664Z,90085.03
2022-10-05T15:53:55.237Z,90082.38
2022-10-05T15:56:38.587Z,90086.44
2022-10-05T15:59:07.983Z,90087.19
2022-10-05T16:01:34.787Z,90080.34
2022-10-05T16:04:12.381Z,90096.91
2022-10-05T16:06:53.947Z,90107.25
2022-10-05T16:09:38.794Z,90100.66
2022-10-05T16:12:25.747Z,90111.53
2022-10-05T16:15:14.619Z,90125.59
2022-10-05T16:17:56.643Z,90131.44
2022-10-05T16:20:25.540Z,90139.19
2022-10-05T16:23:12.167Z,90124.72
2022-10-05T16:26:03.641Z,90130.59
2022-10-05T16:29:05.424Z,90130.09
2022-10-05T16:31:34.984Z,90137.34
2022-10-05T16:34:34.480Z,90142.47
2022-10-05T16:37:11.527Z,90142.44
2022-10-05T16:39:54.258Z,90144.31
2022-10-05T16:42:42.420Z,90133.56
2022-10-05T16:45:18.018Z,90137.94
2022-10-05T16:48:31.197Z,90138.63
2022-10-05T16:51:21.486Z,90150.44
2022-10-05T16:54:03.447Z,90159.16
2022-10-05T16:56:41.849Z,90167.91
2022-10-05T16:59:47.423Z,90164.75
2022-10-05T17:02:28.316Z,90173.56
2022-10-05T17:04:58.313Z,90175.25
2022-10-05T17:07:56.295Z,90177.19
2022-10-05T17:10:35.409Z,90182.06
2022-10-05T17:13:08.073Z,90179.38
2022-10-05T17:15:57.959Z,90169.56
2022-10-05T17:18:50.526Z,90168.81
2022-10-05T17:21:30.679Z,90172.47
2022-10-05T17:24:17.631Z,90173.69
2022-10-05T17:26:57.620Z,90167.88
2022-10-05T17:29:53.659Z,90162.44
2022-10-05T17:32:23.144Z,90164.31
2022-10-05T17:35:18.155Z,90163.06
2022-10-05T17:38:12.712Z,90166.41
2022-10-05T17:40:40.922Z,90162.94
2022-10-05T17:43:25.385Z,90176.16
2022-10-05T17:46:12.174Z,90192.72
2022-10-05T17:48:54.200Z,90193.56
2022-10-05T17:51:29.919Z,90195.69
2022-10-05T17:53:56.794Z,90214.59
2022-10-05T17:56:23.745Z,90212.44
2022-10-05T17:58:50.506Z,90215.50
2022-10-05T18:01:39.827Z,90219.41
2022-10-05T18:04:15.501Z,90202.09
2022-10-05T18:06:59.452Z,90227.06
2022-10-05T18:09:26.163Z,90196.63
2022-10-05T18:11:55.850Z,90206.09
2022-10-05T18:14:25.884Z,90205.75
2022-10-05T18:17:13.340Z,90205.38
2022-10-05T18:19:40.305Z,90223.03
2022-10-05T18:22:30.352Z,90216.78
2022-10-05T18:25:03.351Z,90227.00
2022-10-05T18:27:53.944Z,90256.88
2022-10-05T18:30:25.632Z,90250.59
2022-10-05T18:33:17.048Z,90254.59
2022-10-05T18:35:53.069Z,90259.56
2022-10-05T18:38:47.622Z,90279.13
2022-10-05T18:41:55.156Z,90271.97
2022-10-05T18:44:34.261Z,90273.44
2022-10-05T18:47:10.027Z,90271.59
2022-10-05T18:49:59.962Z,90272.59
2022-10-05T18:53:00.612Z,90288.00
2022-10-05T18:55:35.953Z,90280.63
2022-10-05T18:58:26.676Z,90276.78
2022-10-05T19:01:12.503Z,90289.47
2022-10-05T19:04:11.908Z,90287.34
2022-10-05T19:07:01.620Z,90298.91
2022-10-05T19:09:43.154Z,90301.00
2022-10-05T19:12:28.721Z,90299.22
2022-10-05T19:15:20.438Z,90301.25
2022-10-05T19:17:47.163Z,90306.25
2022-10-05T19:20:30.463Z,90305.72
2022-10-05T19:23:06.089Z,90322.44
2022-10-05T19:25:37.555Z,90315.69
2022-10-05T19:28:31.012Z,90318.03
2022-10-05T19:31:15.570Z,90331.66
2022-10-05T19:34:07.070Z,90334.25
2022-10-05T19:36:41.514Z,90328.19
2022-10-05T19:39:32.906Z,90323.47
2022-10-05T19:42:16.353Z,90324.66
2022-10-05T19:44:45.992Z,90332.13
2022-10-05T19:47:26.134Z,90318.25
2022-10-05T19:49:52.790Z,90338.31
2022-10-05T19:52:28.907Z,90335.38
2022-10-05T19:55:13.486Z,90327.94
2022-10-05T19:57:52.197Z,90322.13
2022-10-05T20:00:31.722Z,90320.06
2022-10-05T20:03:15.311Z,90323.22
2022-10-05T20:05:42.106Z,90317.34
2022-10-05T20:08:18.181Z,90323.97
2022-10-05T20:11:03.257Z,90321.31
2022-10-05T20:13:30.556Z,90329.31
2022-10-05T20:16:12.615Z,90326.34
2022-10-05T20:18:45.162Z,90334.84
2022-10-05T20:21:47.463Z,90330.88
2022-10-05T20:24:24.653Z,90347.72
2022-10-05T20:26:59.765Z,90344.63
2022-10-05T20:29:26.722Z,90348.66
2022-10-05T20:31:53.990Z,90348.56
2022-10-05T20:34:21.273Z,90362.84
2022-10-05T20:36:49.721Z,90356.56
2022-10-05T20:39:17.789Z,90355.38
2022-10-05T20:41:47.961Z,90356.75
2022-10-05T20:44:16.155Z,90358.75
2022-10-05T20:46:42.990Z,90360.41
2022-10-05T20:49:10.275Z,90372.41
2022-10-05T20:51:38.890Z,90365.03
2022-10-05T20:54:07.146Z,90366.91
2022-10-05T20:56:34.319Z,90377.00
2022-10-05T20:59:01.216Z,90383.28
2022-10-05T21:01:28.119Z,90368.56
2022-10-05T21:03:54.983Z,90371.22
2022-10-05T21:06:22.112Z,90364.13
2022-10-05T21:08:49.245Z,90369.38
2022-10-05T21:11:15.968Z,90357.97
2022-10-05T21:13:46.342Z,90363.00
2022-10-05T21:16:17.358Z,90357.66
2022-10-05T21:18:49.046Z,90353.44
2022-10-05T21:21:19.311Z,90354.94
2022-10-05T21:23:47.608Z,90361.75
2022-10-05T21:26:16.539Z,90345.72
2022-10-05T21:28:43.271Z,90352.25
2022-10-05T21:31:10.640Z,90344.59
2022-10-05T21:33:38.501Z,90351.78
2022-10-05T21:36:05.471Z,90342.38
2022-10-05T21:38:32.471Z,90333.16
2022-10-05T21:40:59.391Z,90325.44
2022-10-05T21:43:26.441Z,90316.41
2022-10-05T21:45:55.540Z,90310.06
2022-10-05T21:48:22.704Z,90311.44
2022-10-05T21:50:49.531Z,90310.88
2022-10-05T21:53:18.598Z,90312.56
2022-10-05T21:55:49.070Z,90306.28
2022-10-05T21:58:17.068Z,90307.66
2022-10-05T22:00:44.889Z,90299.84
2022-10-05T22:03:11.669Z,90300.34
2022-10-05T22:05:38.549Z,90302.38
2022-10-05T22:08:05.813Z,90308.72
2022-10-05T22:10:33.479Z,90304.47
2022-10-05T22:13:01.910Z,90309.25
2022-10-05T22:15:32.192Z,90306.84
2022-10-05T22:17:59.543Z,90309.97
2022-10-05T22:20:27.238Z,90313.19
2022-10-05T22:22:54.252Z,90322.25
2022-10-05T22:25:21.846Z,90321.84
2022-10-05T22:27:49.726Z,90316.91
2022-10-05T22:30:18.078Z,90329.66
2022-10-05T22:32:44.860Z,90329.56
2022-10-05T22:35:12.022Z,90330.00
2022-10-05T22:37:39.000Z,90321.91
2022-10-05T22:40:07.697Z,90323.13
2022-10-05T22:42:34.846Z,90329.53
2022-10-05T22:45:01.733Z,90329.06
2022-10-05T22:47:28.644Z,90328.94
2022-10-05T22:49:55.454Z,90335.78
2022-10-05T22:52:22.304Z,90333.31
2022-10-05T22:54:49.135Z,90324.31
2022-10-05T22:57:15.891Z,90323.34
2022-10-05T22:59:42.723Z,90317.09
2022-10-05T23:02:09.957Z,90315.78
2022-10-05T23:04:36.727Z,90313.00
2022-10-05T23:07:03.659Z,90311.44
2022-10-05T23:09:30.720Z,90310.88
2022-10-05T23:11:57.510Z,90319.31
2022-10-05T23:14:24.619Z,90322.84
2022-10-05T23:16:51.376Z,90314.25
2022-10-05T23:19:18.314Z,90312.84
2022-10-05T23:21:45.259Z,90305.13
2022-10-05T23:24:11.985Z,90303.09
2022-10-05T23:26:38.737Z,90290.97
2022-10-05T23:29:05.719Z,90293.91
2022-10-05T23:31:32.589Z,90293.06
2022-10-05T23:33:59.359Z,90296.31
2022-10-05T23:36:28.805Z,90303.44
2022-10-05T23:38:56.150Z,90291.59
2022-10-05T23:41:22.857Z,90287.31
2022-10-05T23:43:50.119Z,90282.72
2022-10-05T23:46:17.799Z,90277.06
2022-10-05T23:48:44.605Z,90273.66
2022-10-05T23:51:13.684Z,90266.13
2022-10-05T23:53:40.544Z,90257.28
2022-10-05T23:56:07.589Z,90257.84
2022-10-05T23:58:34.406Z,90251.66
